Time;durP1;ratioP1;P1;durP2;ratioP2;P2;SDS_P1;SDS_P2;PMS_P1;PMS_P2;Temp;Humidity;BMP_temperature;BMP_pressure;BME280_temperature;BME280_humidity;BME280_pressure;Samples;Min_cycle;Max_cycle;Signal;HPM_P1;HPM_P2
2023/11/15 00:02:11;;;;;;;0.90;0.70;;;13.30;91.30;;;;;;4997348;28;20120;-81
2023/11/15 00:04:37;;;;;;;1.17;0.80;;;13.30;91.30;;;;;;4997968;28;20612;-80
2023/11/15 00:07:03;;;;;;;2.00;0.88;;;13.30;91.20;;;;;;4997130;28;20069;-80
2023/11/15 00:09:29;;;;;;;1.80;0.90;;;13.40;91.20;;;;;;5015218;28;20026;-80
2023/11/15 00:11:55;;;;;;;2.15;0.93;;;13.40;91.10;;;;;;4997559;28;20026;-80
2023/11/15 00:14:21;;;;;;;1.55;0.80;;;13.40;91.10;;;;;;5015100;28;20464;-80
2023/11/15 00:16:46;;;;;;;2.13;0.90;;;13.30;91.10;;;;;;5014660;28;20049;-81
2023/11/15 00:19:13;;;;;;;2.00;0.88;;;13.40;91.10;;;;;;5014900;28;20030;-80
2023/11/15 00:21:39;;;;;;;2.15;0.73;;;13.40;91.20;;;;;;5015070;28;20384;-80
2023/11/15 00:24:05;;;;;;;2.58;0.95;;;13.40;91.20;;;;;;4997601;28;20029;-80
2023/11/15 00:26:30;;;;;;;1.70;0.73;;;13.30;91.20;;;;;;4997091;28;20022;-80
2023/11/15 00:28:57;;;;;;;1.92;0.93;;;13.30;91.20;;;;;;4997050;28;20022;-81
2023/11/15 00:31:23;;;;;;;1.05;0.75;;;13.40;91.30;;;;;;4997054;28;20078;-80
2023/11/15 00:33:49;;;;;;;0.88;0.80;;;13.30;91.30;;;;;;4997178;28;20105;-80
2023/11/15 00:36:19;;;;;;;1.42;0.75;;;13.30;91.30;;;;;;5014588;28;20060;-81
2023/11/15 00:38:45;;;;;;;1.20;0.77;;;13.30;91.30;;;;;;4996872;28;20022;-80
2023/11/15 00:41:11;;;;;;;1.50;0.80;;;13.30;91.40;;;;;;4997154;28;20053;-80
2023/11/15 00:43:37;;;;;;;2.00;0.85;;;13.30;91.40;;;;;;4997125;28;20068;-80
2023/11/15 00:46:02;;;;;;;1.00;0.77;;;13.30;91.40;;;;;;4996900;28;20546;-82
2023/11/15 00:48:28;;;;;;;1.42;0.80;;;13.30;91.40;;;;;;4996561;28;20026;-79
2023/11/15 00:50:54;;;;;;;1.35;0.75;;;13.30;91.40;;;;;;4996857;28;20088;-80
2023/11/15 00:53:19;;;;;;;1.73;0.80;;;13.30;91.40;;;;;;5014423;28;20037;-80
2023/11/15 00:55:45;;;;;;;2.10;0.88;;;13.30;91.40;;;;;;5014472;28;20076;-80
2023/11/15 00:58:11;;;;;;;1.35;0.90;;;13.30;91.40;;;;;;4996121;28;20043;-80
2023/11/15 01:00:44;;;;;;;2.67;0.70;;;13.30;91.40;;;;;;4996487;28;20025;-80
2023/11/15 01:03:12;;;;;;;1.67;0.90;;;13.30;91.40;;;;;;4996645;28;20033;-80
2023/11/15 01:05:37;;;;;;;1.77;0.88;;;13.30;91.40;;;;;;4996574;28;20022;-81
2023/11/15 01:08:04;;;;;;;1.90;0.77;;;13.30;91.50;;;;;;4996279;28;20026;-80
2023/11/15 01:10:32;;;;;;;2.20;0.90;;;13.30;91.40;;;;;;4996425;28;20586;-80
2023/11/15 01:13:01;;;;;;;1.52;0.70;;;13.40;91.50;;;;;;4996048;28;20462;-81
2023/11/15 01:15:27;;;;;;;1.52;0.90;;;13.30;91.50;;;;;;4996330;28;20480;-80
2023/11/15 01:17:53;;;;;;;2.17;0.65;;;13.30;91.50;;;;;;4995961;28;20040;-80
2023/11/15 01:20:18;;;;;;;1.65;0.88;;;13.30;91.50;;;;;;4996306;28;20374;-81
2023/11/15 01:22:45;;;;;;;1.80;0.93;;;13.30;91.50;;;;;;5013675;28;20069;-80
2023/11/15 01:25:12;;;;;;;1.63;0.80;;;13.30;91.50;;;;;;4996371;28;20018;-80
2023/11/15 01:27:38;;;;;;;1.42;0.85;;;13.30;91.50;;;;;;4995919;28;20109;-80
2023/11/15 01:30:04;;;;;;;1.70;0.85;;;13.30;91.50;;;;;;4996472;28;20100;-80
2023/11/15 01:32:30;;;;;;;1.23;0.73;;;13.30;91.50;;;;;;4995929;28;20032;-80
2023/11/15 01:34:56;;;;;;;2.22;0.90;;;13.30;91.50;;;;;;4996095;28;20114;-80
2023/11/15 01:37:21;;;;;;;1.60;0.77;;;13.30;91.50;;;;;;5013254;28;20105;-80
2023/11/15 01:39:47;;;;;;;2.00;0.80;;;13.30;91.30;;;;;;5013333;28;20512;-80
2023/11/15 01:42:13;;;;;;;1.10;0.70;;;13.30;91.30;;;;;;5013111;28;20022;-79
2023/11/15 01:44:38;;;;;;;1.73;0.80;;;13.40;91.20;;;;;;4995755;28;20029;-79
2023/11/15 01:47:07;;;;;;;1.17;0.63;;;13.30;91.10;;;;;;4995631;28;20061;-81
2023/11/15 01:49:32;;;;;;;1.30;0.73;;;13.40;91.10;;;;;;4995623;28;20026;-80
2023/11/15 01:51:58;;;;;;;1.35;0.80;;;13.40;91.10;;;;;;4995721;28;20026;-80
2023/11/15 01:54:24;;;;;;;1.50;0.85;;;13.40;91.10;;;;;;4995737;28;20041;-80
2023/11/15 01:56:50;;;;;;;1.83;0.90;;;13.40;91.10;;;;;;4995377;28;20024;-77
2023/11/15 01:59:16;;;;;;;1.05;0.70;;;13.40;91.10;;;;;;4995468;28;20029;-80
2023/11/15 02:01:42;;;;;;;1.35;0.73;;;13.40;91.40;;;;;;5012991;28;20037;-80
2023/11/15 02:04:08;;;;;;;1.95;0.70;;;13.40;91.20;;;;;;5013463;28;20112;-81
2023/11/15 02:06:35;;;;;;;2.40;1.02;;;13.40;91.20;;;;;;5012900;28;20026;-80
2023/11/15 02:09:02;;;;;;;1.75;0.80;;;13.40;91.30;;;;;;5013115;28;20072;-80
2023/11/15 02:11:28;;;;;;;1.20;0.60;;;13.30;91.30;;;;;;4995415;28;20037;-80
2023/11/15 02:13:54;;;;;;;1.00;0.63;;;13.30;91.30;;;;;;4995500;28;20033;-80
2023/11/15 02:16:22;;;;;;;1.52;0.80;;;13.30;91.30;;;;;;4995437;28;20121;-80
2023/11/15 02:18:48;;;;;;;1.10;0.63;;;13.20;91.30;;;;;;5012569;28;20427;-80
2023/11/15 02:38:36;;;;;;;1.30;0.60;;;13.30;91.40;;;;;;4987120;28;20519;-80
2023/11/15 02:41:02;;;;;;;1.73;0.88;;;13.20;91.40;;;;;;4988612;28;20034;-82
2023/11/15 02:43:28;;;;;;;1.35;0.70;;;13.30;91.50;;;;;;5012579;28;20034;-80
2023/11/15 02:45:53;;;;;;;1.35;0.70;;;13.20;91.40;;;;;;4995347;28;20116;-80
2023/11/15 02:48:19;;;;;;;2.30;0.90;;;13.20;91.40;;;;;;4994722;28;20033;-80
2023/11/15 02:50:44;;;;;;;2.20;0.90;;;13.20;91.50;;;;;;4994879;28;20507;-80
2023/11/15 02:53:10;;;;;;;1.27;0.80;;;13.20;91.50;;;;;;4996765;28;20157;-80
2023/11/15 02:55:35;;;;;;;1.40;0.80;;;13.30;91.50;;;;;;5016522;28;20026;-80
2023/11/15 02:58:02;;;;;;;0.60;0.60;;;13.20;91.50;;;;;;4998557;28;20037;-80
2023/11/15 03:00:29;;;;;;;2.00;0.60;;;13.20;91.50;;;;;;5016380;28;20049;-80
2023/11/15 03:02:54;;;;;;;1.67;0.70;;;13.30;91.50;;;;;;4998849;28;20029;-80
2023/11/15 03:05:21;;;;;;;1.52;0.65;;;13.20;91.50;;;;;;4998672;28;20026;-80
2023/11/15 03:07:46;;;;;;;1.27;0.80;;;13.20;91.50;;;;;;4998503;28;20029;-80
2023/11/15 03:10:12;;;;;;;1.70;0.70;;;13.20;91.50;;;;;;4998532;28;20026;-80
2023/11/15 03:12:37;;;;;;;1.48;0.65;;;13.30;91.50;;;;;;4998762;28;20464;-80
2023/11/15 03:15:03;;;;;;;1.80;0.70;;;13.20;91.50;;;;;;4998665;28;20507;-81
2023/11/15 03:17:29;;;;;;;1.67;0.80;;;13.20;91.50;;;;;;4998257;28;20116;-80
2023/11/15 03:19:55;;;;;;;1.73;0.75;;;13.30;91.50;;;;;;4994463;28;20132;-80
2023/11/15 03:22:20;;;;;;;0.63;0.60;;;13.30;91.50;;;;;;4996362;28;20108;-79
2023/11/15 03:24:46;;;;;;;2.28;1.00;;;13.30;91.40;;;;;;4978459;28;20525;-80
2023/11/15 03:27:12;;;;;;;1.73;0.60;;;13.30;91.30;;;;;;4978614;28;20564;-80
2023/11/15 03:29:38;;;;;;;2.22;0.60;;;13.30;91.50;;;;;;4978558;28;20034;-80
2023/11/15 03:32:03;;;;;;;1.77;0.77;;;13.40;91.20;;;;;;4979219;28;20031;-80
2023/11/15 03:34:29;;;;;;;1.13;0.60;;;13.40;91.20;;;;;;4978708;28;20448;-81
2023/11/15 03:36:55;;;;;;;2.60;0.93;;;13.40;91.10;;;;;;4995848;28;20500;-81
2023/11/15 03:39:20;;;;;;;1.15;0.70;;;13.40;91.10;;;;;;4978506;28;20116;-80
2023/11/15 03:41:46;;;;;;;0.85;0.60;;;13.40;91.10;;;;;;4978641;28;20022;-80
2023/11/15 03:44:12;;;;;;;1.92;0.70;;;13.40;91.20;;;;;;4995882;28;20105;-80
2023/11/15 03:46:38;;;;;;;1.60;0.60;;;13.40;91.20;;;;;;4978409;28;20022;-80
2023/11/15 03:49:04;;;;;;;1.95;0.70;;;13.40;91.20;;;;;;4978585;28;20436;-80
2023/11/15 03:51:29;;;;;;;1.48;0.70;;;13.30;91.20;;;;;;4996105;28;20056;-80
2023/11/15 03:53:55;;;;;;;1.00;0.60;;;13.30;91.20;;;;;;4989613;28;20496;-80
2023/11/15 03:56:20;;;;;;;1.35;0.77;;;13.30;91.30;;;;;;4959015;28;20041;-80
2023/11/15 03:58:45;;;;;;;1.95;0.90;;;13.30;91.30;;;;;;4958851;28;20054;-80
2023/11/15 04:01:11;;;;;;;0.73;0.60;;;13.30;91.40;;;;;;4958773;28;20031;-80
2023/11/15 04:03:38;;;;;;;1.27;0.60;;;13.30;91.40;;;;;;4958361;28;20022;-80
2023/11/15 04:06:05;;;;;;;1.98;0.88;;;13.30;91.40;;;;;;4958854;28;20031;-80
2023/11/15 04:08:30;;;;;;;1.45;0.63;;;13.30;91.40;;;;;;4958583;28;20027;-80
2023/11/15 04:10:57;;;;;;;1.17;0.57;;;13.30;91.40;;;;;;4976207;28;20143;-80
2023/11/15 04:13:23;;;;;;;1.60;0.70;;;13.30;91.50;;;;;;4976067;28;20401;-80
2023/11/15 04:15:49;;;;;;;1.13;0.70;;;13.30;91.50;;;;;;4975899;28;20031;-81
2023/11/15 04:18:15;;;;;;;1.45;0.60;;;13.30;91.50;;;;;;4958311;28;20027;-80
2023/11/15 04:20:41;;;;;;;1.40;0.68;;;13.30;91.50;;;;;;4958647;28;20023;-80
2023/11/15 04:23:06;;;;;;;1.98;0.77;;;13.20;91.50;;;;;;4975631;28;20030;-80
2023/11/15 04:25:32;;;;;;;1.25;0.60;;;13.20;91.50;;;;;;4957713;28;20030;-81
2023/11/15 04:27:57;;;;;;;1.80;0.77;;;13.30;91.70;;;;;;4954695;28;20452;-82
2023/11/15 04:30:25;;;;;;;2.05;0.70;;;13.20;91.50;;;;;;4955341;28;20106;-82
2023/11/15 04:32:51;;;;;;;1.25;0.50;;;13.20;91.50;;;;;;4956458;28;20015;-81
2023/11/15 04:35:18;;;;;;;0.95;0.57;;;13.30;91.50;;;;;;4966152;28;20046;-81
2023/11/15 04:37:44;;;;;;;1.45;0.63;;;13.20;91.50;;;;;;4986039;28;20620;-81
2023/11/15 04:40:10;;;;;;;1.65;0.80;;;13.20;91.50;;;;;;4967254;28;20022;-80
2023/11/15 04:42:36;;;;;;;1.88;0.80;;;13.20;91.50;;;;;;4980113;28;20034;-81
2023/11/15 04:45:03;;;;;;;1.35;0.68;;;13.20;91.50;;;;;;4994493;28;20062;-80
2023/11/15 04:47:28;;;;;;;0.80;0.50;;;13.20;91.50;;;;;;4995154;28;20049;-82
2023/11/15 04:49:54;;;;;;;0.95;0.60;;;13.20;91.50;;;;;;5012846;28;20106;-79
2023/11/15 04:52:20;;;;;;;1.25;0.65;;;13.20;91.50;;;;;;4993788;28;20476;-81
2023/11/15 04:54:45;;;;;;;1.10;0.60;;;13.20;91.50;;;;;;4994346;28;20026;-80
2023/11/15 04:57:11;;;;;;;2.97;1.00;;;13.20;91.50;;;;;;4994002;28;20049;-81
2023/11/15 04:59:38;;;;;;;1.30;0.70;;;13.20;91.50;;;;;;5011979;28;20463;-82
2023/11/15 05:02:04;;;;;;;1.58;0.60;;;13.20;91.50;;;;;;4978310;28;20041;-81
2023/11/15 05:04:30;;;;;;;0.80;0.70;;;13.20;91.50;;;;;;4993784;28;20030;-82
2023/11/15 05:07:24;;;;;;;1.15;0.50;;;13.20;91.50;;;;;;5011087;28;20029;-83
2023/11/15 05:10:22;;;;;;;1.42;0.63;;;13.30;91.50;;;;;;5010834;28;20022;-82
2023/11/15 05:13:04;;;;;;;1.73;0.57;;;13.30;91.30;;;;;;5012638;28;20020;-85
2023/11/15 05:15:30;;;;;;;0.73;0.50;;;13.40;91.30;;;;;;4993637;28;20421;-82
2023/11/15 05:17:56;;;;;;;1.35;0.63;;;13.30;91.20;;;;;;4993383;28;20112;-84
2023/11/15 05:20:21;;;;;;;0.90;0.52;;;13.30;91.20;;;;;;4985496;28;20150;-80
2023/11/15 05:22:47;;;;;;;0.65;0.43;;;13.40;91.20;;;;;;4969716;28;20080;-78
2023/11/15 05:25:12;;;;;;;1.48;0.60;;;13.40;91.30;;;;;;4982128;28;20022;-81
2023/11/15 05:27:38;;;;;;;0.80;0.65;;;13.30;91.20;;;;;;4972481;28;20555;-81
2023/11/15 05:30:04;;;;;;;1.35;0.70;;;13.30;91.30;;;;;;4973132;28;20448;-80
2023/11/15 05:32:29;;;;;;;1.75;0.77;;;13.30;91.30;;;;;;4972329;28;20030;-80
2023/11/15 05:34:55;;;;;;;2.00;0.63;;;13.30;91.30;;;;;;4989363;28;20546;-81
2023/11/15 05:37:20;;;;;;;0.88;0.60;;;13.30;91.40;;;;;;4989625;28;20489;-78
2023/11/15 05:39:46;;;;;;;1.00;0.60;;;13.30;91.40;;;;;;4972456;28;20030;-80
2023/11/15 05:42:11;;;;;;;1.08;0.60;;;13.30;91.40;;;;;;4989971;28;20489;-80
2023/11/15 05:44:37;;;;;;;0.90;0.50;;;13.30;91.40;;;;;;4972859;28;20096;-81
2023/11/15 05:47:03;;;;;;;1.10;0.60;;;13.20;91.40;;;;;;4989973;28;20495;-80
2023/11/15 05:49:30;;;;;;;2.00;0.60;;;13.30;91.50;;;;;;4973239;28;20034;-80
2023/11/15 05:51:56;;;;;;;1.58;0.50;;;13.20;91.40;;;;;;4973026;28;20033;-80
2023/11/15 05:54:21;;;;;;;2.05;0.80;;;13.30;91.50;;;;;;4972806;28;20476;-80
2023/11/15 05:56:47;;;;;;;1.60;0.70;;;13.20;91.50;;;;;;4972187;28;20032;-80
2023/11/15 05:59:15;;;;;;;1.02;0.55;;;13.20;91.50;;;;;;4972840;28;20471;-80
2023/11/15 06:01:41;;;;;;;1.58;0.68;;;13.20;91.50;;;;;;4972540;28;20030;-80
2023/11/15 06:04:07;;;;;;;0.93;0.50;;;13.20;91.50;;;;;;4990238;28;20023;-80
2023/11/15 06:06:34;;;;;;;1.65;0.60;;;13.20;91.50;;;;;;4990535;28;20025;-80
2023/11/15 06:09:00;;;;;;;0.82;0.50;;;13.20;91.50;;;;;;4989410;28;20027;-81
2023/11/15 06:11:25;;;;;;;1.77;0.60;;;13.20;91.50;;;;;;4972332;28;20550;-81
2023/11/15 06:13:51;;;;;;;0.55;0.50;;;13.20;91.50;;;;;;4972155;28;20121;-80
2023/11/15 06:16:16;;;;;;;1.40;0.60;;;13.20;91.50;;;;;;4990080;28;20475;-81
2023/11/15 06:18:43;;;;;;;1.70;0.98;;;13.20;91.50;;;;;;4990028;28;20030;-81
2023/11/15 06:21:09;;;;;;;0.98;0.57;;;13.20;91.80;;;;;;4972452;28;20050;-80
2023/11/15 06:23:35;;;;;;;1.52;0.60;;;13.20;91.50;;;;;;4972415;28;20499;-82
2023/11/15 06:26:00;;;;;;;0.95;0.52;;;13.20;91.50;;;;;;4972185;28;20026;-80
2023/11/15 06:28:26;;;;;;;0.90;0.50;;;13.20;91.50;;;;;;4972159;28;20038;-81
2023/11/15 06:30:51;;;;;;;1.08;0.63;;;13.20;91.50;;;;;;4972221;28;20034;-81
2023/11/15 06:33:17;;;;;;;1.73;0.60;;;13.20;91.60;;;;;;4972184;28;20117;-82
2023/11/15 06:35:44;;;;;;;2.28;0.60;;;13.20;91.60;;;;;;4972204;28;20053;-80
2023/11/15 06:38:10;;;;;;;1.67;0.88;;;13.20;91.50;;;;;;4973253;28;20029;-81
2023/11/15 06:40:35;;;;;;;2.25;0.50;;;13.20;91.50;;;;;;4975487;28;20026;-81
2023/11/15 06:43:01;;;;;;;2.20;0.63;;;13.20;91.50;;;;;;4975335;28;20014;-81
2023/11/15 06:45:27;;;;;;;3.85;0.77;;;13.30;91.50;;;;;;4975624;28;20046;-81
2023/11/15 06:47:53;;;;;;;2.50;0.65;;;13.20;91.40;;;;;;4975171;28;20029;-81
2023/11/15 06:50:19;;;;;;;2.15;0.70;;;13.30;91.40;;;;;;4992885;28;20026;-81
2023/11/15 06:52:45;;;;;;;2.00;0.75;;;13.30;91.30;;;;;;4975570;28;20049;-81
2023/11/15 06:55:11;;;;;;;2.10;0.90;;;13.30;91.30;;;;;;4975461;28;20058;-81
2023/11/15 06:57:41;;;;;;;2.38;0.75;;;13.30;91.20;;;;;;4975053;28;20407;-81
2023/11/15 07:00:11;;;;;;;2.75;0.80;;;13.30;91.20;;;;;;4975455;28;20058;-80
2023/11/15 07:02:37;;;;;;;2.22;0.80;;;13.30;91.20;;;;;;4975085;28;20034;-81
2023/11/15 07:05:05;;;;;;;3.20;1.17;;;13.30;91.20;;;;;;4975365;28;20109;-81
2023/11/15 07:07:30;;;;;;;3.17;1.10;;;13.30;91.20;;;;;;4975060;28;20121;-81
2023/11/15 07:09:56;;;;;;;3.53;0.95;;;13.30;91.30;;;;;;4975411;28;20113;-81
2023/11/15 07:12:23;;;;;;;2.88;1.13;;;13.30;91.30;;;;;;4975585;28;20034;-81
2023/11/15 07:14:51;;;;;;;4.03;1.20;;;13.30;91.40;;;;;;4975381;28;20018;-81
2023/11/15 07:17:19;;;;;;;3.33;1.17;;;13.20;91.40;;;;;;4974826;28;20026;-81
2023/11/15 07:19:50;;;;;;;3.25;1.48;;;13.20;91.40;;;;;;4975444;28;20030;-81
2023/11/15 07:22:16;;;;;;;5.18;1.30;;;13.20;91.40;;;;;;4975266;28;20531;-81
2023/11/15 07:24:42;;;;;;;4.78;1.40;;;13.20;91.40;;;;;;4992821;28;20128;-80
2023/11/15 07:27:08;;;;;;;3.65;1.33;;;13.20;91.50;;;;;;4974864;28;20023;-81
2023/11/15 07:29:35;;;;;;;4.30;1.50;;;13.20;91.50;;;;;;4975210;28;20027;-81
2023/11/15 07:32:03;;;;;;;3.17;1.30;;;13.20;91.50;;;;;;4975142;28;20041;-81
2023/11/15 07:34:29;;;;;;;4.10;1.77;;;13.20;91.50;;;;;;4992505;28;20029;-80
2023/11/15 07:36:55;;;;;;;3.85;1.45;;;13.20;91.50;;;;;;4974799;28;20030;-80
2023/11/15 07:39:24;;;;;;;4.43;1.50;;;13.20;91.50;;;;;;4976756;28;20022;-81
2023/11/15 07:41:50;;;;;;;3.60;1.67;;;13.20;91.50;;;;;;4978472;28;20499;-81
2023/11/15 07:44:17;;;;;;;2.85;1.40;;;13.20;91.50;;;;;;4978720;28;20022;-81
2023/11/15 07:46:46;;;;;;;4.68;1.58;;;13.20;91.50;;;;;;4978321;28;20050;-81
2023/11/15 07:49:18;;;;;;;4.40;1.50;;;13.20;91.50;;;;;;4978500;28;20101;-81
2023/11/15 07:51:46;;;;;;;;;;;13.20;91.50;;;;;;4978952;28;20026;-81
2023/11/15 07:54:13;;;;;;;4.05;1.55;;;13.20;91.60;;;;;;4995799;28;19964;-81
2023/11/15 07:56:43;;;;;;;3.65;1.60;;;13.20;91.60;;;;;;4978092;28;20113;-80
2023/11/15 07:59:10;;;;;;;3.40;1.40;;;13.20;91.60;;;;;;4978088;28;20054;-81
2023/11/15 08:01:37;;;;;;;4.68;2.00;;;13.20;91.60;;;;;;4995067;28;20026;-81
2023/11/15 08:04:06;;;;;;;3.50;1.35;;;13.20;91.60;;;;;;4977923;28;20117;-82
2023/11/15 08:06:33;;;;;;;3.15;1.30;;;13.20;91.60;;;;;;4995143;28;20023;-81
2023/11/15 08:08:59;;;;;;;4.25;1.60;;;13.20;91.60;;;;;;4977888;28;20026;-81
2023/11/15 08:11:25;;;;;;;3.00;1.45;;;13.20;91.60;;;;;;4995543;28;20053;-81
2023/11/15 08:13:53;;;;;;;4.53;1.33;;;13.20;91.60;;;;;;4978044;28;20034;-81
2023/11/15 08:16:22;;;;;;;4.57;1.52;;;13.20;91.60;;;;;;4977963;28;20030;-81
2023/11/15 08:18:48;;;;;;;4.65;1.70;;;13.20;91.60;;;;;;4977676;28;20412;-81
2023/11/15 08:21:13;;;;;;;3.30;1.55;;;13.20;91.60;;;;;;4977874;28;20030;-81
2023/11/15 08:23:40;;;;;;;4.28;1.67;;;13.20;91.50;;;;;;4977854;28;20025;-81
2023/11/15 08:26:07;;;;;;;2.65;1.27;;;13.20;91.50;;;;;;4977839;28;20121;-81
2023/11/15 08:28:33;;;;;;;4.60;1.45;;;13.30;91.40;;;;;;4994848;28;20495;-80
2023/11/15 08:30:59;;;;;;;4.05;1.55;;;13.30;91.40;;;;;;4977663;28;20026;-81
2023/11/15 08:33:26;;;;;;;3.10;1.30;;;13.30;91.30;;;;;;4977807;28;20512;-81
2023/11/15 08:35:53;;;;;;;3.58;1.60;;;13.30;91.30;;;;;;4977559;28;20033;-81
2023/11/15 08:38:23;;;;;;;3.42;1.60;;;13.30;91.20;;;;;;4977165;28;20547;-81
2023/11/15 08:40:49;;;;;;;4.28;1.50;;;13.30;91.20;;;;;;4977528;28;20023;-81
2023/11/15 08:43:17;;;;;;;3.78;1.60;;;13.30;91.20;;;;;;4977481;28;20023;-80
2023/11/15 08:45:44;;;;;;;3.60;1.60;;;13.30;91.30;;;;;;4977415;28;20069;-81
2023/11/15 08:48:11;;;;;;;3.67;1.52;;;13.30;91.30;;;;;;4994493;28;20046;-80
2023/11/15 08:50:43;;;;;;;4.15;1.70;;;13.30;91.30;;;;;;4977287;28;20030;-80
2023/11/15 08:53:12;;;;;;;3.70;2.00;;;13.30;91.40;;;;;;4994937;28;20031;-81
2023/11/15 08:55:38;;;;;;;2.83;1.48;;;13.30;91.40;;;;;;4977382;28;20041;-81
2023/11/15 08:58:07;;;;;;;4.28;1.60;;;13.30;91.40;;;;;;4976923;28;20101;-81
2023/11/15 09:00:33;;;;;;;4.15;1.60;;;13.20;91.40;;;;;;4976961;28;20113;-82
2023/11/15 09:02:59;;;;;;;3.47;1.48;;;13.20;91.40;;;;;;4977087;28;20096;-81
2023/11/15 09:05:25;;;;;;;3.03;1.70;;;13.20;91.50;;;;;;4976936;28;20073;-82
2023/11/15 09:07:51;;;;;;;2.60;1.42;;;13.20;91.50;;;;;;4976725;28;20019;-81
2023/11/15 09:10:16;;;;;;;3.17;1.33;;;13.30;91.50;;;;;;4976946;28;20019;-81
2023/11/15 09:12:44;;;;;;;2.22;1.20;;;13.20;91.50;;;;;;4977113;28;20463;-81
2023/11/15 09:15:13;;;;;;;3.15;1.40;;;13.20;91.50;;;;;;4976917;28;20022;-81
2023/11/15 09:17:50;;;;;;;3.88;1.77;;;13.20;91.50;;;;;;4976451;28;20026;-81
2023/11/15 09:20:29;;;;;;;3.53;1.50;;;13.20;91.50;;;;;;4976609;28;20451;-82
2023/11/15 09:22:57;;;;;;;4.18;1.48;;;13.20;91.50;;;;;;4976667;28;20018;-81
2023/11/15 09:25:31;;;;;;;3.17;1.30;;;13.20;91.60;;;;;;4976762;28;20025;-81
2023/11/15 09:27:59;;;;;;;4.07;1.65;;;13.20;91.60;;;;;;4976352;28;20028;-81
2023/11/15 09:30:25;;;;;;;2.53;1.30;;;13.20;91.60;;;;;;4976776;28;20069;-81
2023/11/15 09:32:51;;;;;;;2.88;1.45;;;13.20;91.60;;;;;;4993939;28;20050;-81
2023/11/15 09:35:21;;;;;;;4.28;1.55;;;13.20;91.60;;;;;;4976453;28;20027;-81
2023/11/15 09:37:48;;;;;;;2.33;1.20;;;13.20;91.60;;;;;;4993817;28;20105;-81
2023/11/15 09:40:13;;;;;;;4.20;1.48;;;13.20;91.60;;;;;;4976350;28;20061;-81
2023/11/15 09:42:42;;;;;;;3.13;1.48;;;13.20;91.60;;;;;;4976355;28;20057;-82
2023/11/15 09:45:12;;;;;;;2.50;1.45;;;13.20;91.60;;;;;;4976322;28;20113;-81
2023/11/15 09:47:40;;;;;;;2.25;1.20;;;13.20;91.60;;;;;;4976466;28;20424;-80
2023/11/15 09:50:09;;;;;;;3.20;1.30;;;13.30;91.60;;;;;;4976214;28;20050;-82
2023/11/15 09:52:38;;;;;;;2.35;1.10;;;13.30;91.50;;;;;;4976308;28;20053;-81
2023/11/15 09:55:05;;;;;;;3.53;1.45;;;13.30;91.50;;;;;;4993687;28;20688;-81
2023/11/15 09:57:31;;;;;;;3.22;1.45;;;13.30;91.60;;;;;;4975833;28;20538;-81
2023/11/15 09:59:56;;;;;;;3.72;1.42;;;13.30;91.60;;;;;;4993532;28;20030;-81
2023/11/15 10:02:23;;;;;;;2.78;1.25;;;13.20;91.50;;;;;;4974959;28;20117;-81
2023/11/15 10:05:18;;;;;;;3.03;1.00;;;13.30;91.50;;;;;;4976042;28;20057;-81
2023/11/15 10:07:47;;;;;;;2.47;1.05;;;13.30;91.50;;;;;;4975934;28;20018;-81
2023/11/15 10:10:20;;;;;;;2.30;1.15;;;13.30;91.40;;;;;;4975754;28;20027;-81
2023/11/15 10:12:51;;;;;;;2.80;1.20;;;13.30;91.40;;;;;;4975921;28;20117;-80
2023/11/15 10:15:37;;;;;;;2.65;1.25;;;13.30;91.30;;;;;;4975881;28;20382;-81
2023/11/15 10:18:04;;;;;;;2.97;1.15;;;13.30;91.30;;;;;;4975566;28;20030;-81
2023/11/15 10:20:30;;;;;;;2.70;1.15;;;13.40;91.30;;;;;;4975755;28;20023;-81
2023/11/15 10:22:57;;;;;;;2.35;1.05;;;13.40;91.30;;;;;;4993088;28;20412;-81
2023/11/15 10:25:25;;;;;;;2.85;1.27;;;13.40;91.30;;;;;;4993259;28;20045;-81
2023/11/15 10:27:54;;;;;;;2.05;1.00;;;13.40;91.30;;;;;;4975455;28;20113;-81
2023/11/15 10:30:22;;;;;;;3.40;1.20;;;13.30;91.30;;;;;;4975900;28;20077;-81
2023/11/15 10:32:48;;;;;;;2.78;1.10;;;13.30;91.30;;;;;;4975765;28;20023;-81
2023/11/15 10:35:29;;;;;;;2.45;1.00;;;13.30;91.40;;;;;;4993205;28;20033;-81
2023/11/15 10:37:55;;;;;;;1.77;1.00;;;13.30;91.40;;;;;;4975664;28;20026;-81
2023/11/15 10:40:25;;;;;;;2.83;1.20;;;13.30;91.40;;;;;;4975502;28;20500;-81
2023/11/15 10:42:52;;;;;;;1.77;0.90;;;13.30;91.50;;;;;;4975509;28;20033;-81
2023/11/15 10:45:22;;;;;;;2.65;1.13;;;13.30;91.50;;;;;;4993022;28;20523;-81
2023/11/15 10:48:02;;;;;;;1.55;0.85;;;13.30;91.50;;;;;;4975390;28;20165;-81
2023/11/15 10:50:31;;;;;;;2.33;0.90;;;13.20;91.50;;;;;;4975674;28;20034;-81
2023/11/15 10:53:02;;;;;;;2.38;1.15;;;13.20;91.50;;;;;;4975533;28;20034;-80
2023/11/15 10:55:30;;;;;;;2.35;1.00;;;13.30;91.50;;;;;;4992985;28;20037;-81
2023/11/15 10:58:00;;;;;;;2.08;1.00;;;13.20;91.50;;;;;;4975103;28;20026;-81
2023/11/15 11:00:29;;;;;;;2.35;0.90;;;13.30;91.50;;;;;;4975291;28;20081;-81
2023/11/15 11:02:56;;;;;;;2.58;1.10;;;13.20;91.50;;;;;;4974873;28;20030;-81
2023/11/15 11:05:40;;;;;;;2.20;1.00;;;13.30;91.50;;;;;;4975612;28;20029;-81
2023/11/15 11:08:19;;;;;;;2.70;1.02;;;13.30;91.60;;;;;;4975332;28;20019;-81
2023/11/15 11:10:53;;;;;;;2.20;0.88;;;13.20;91.50;;;;;;4975389;28;20381;-81
2023/11/15 11:13:21;;;;;;;2.55;1.00;;;13.30;91.60;;;;;;4975680;28;20114;-81
2023/11/15 11:15:47;;;;;;;1.55;1.00;;;13.20;91.50;;;;;;4979092;28;20412;-81
2023/11/15 11:18:21;;;;;;;2.47;1.08;;;13.20;91.50;;;;;;4978578;28;20027;-81
2023/11/15 11:21:01;;;;;;;1.67;1.05;;;13.20;91.50;;;;;;4979140;28;20026;-82
2023/11/15 11:23:28;;;;;;;2.22;1.00;;;13.20;91.60;;;;;;4978985;28;20029;-81
2023/11/15 11:26:13;;;;;;;2.28;0.90;;;13.20;91.60;;;;;;4978961;28;20029;-82
2023/11/15 11:29:02;;;;;;;1.35;0.80;;;13.20;91.60;;;;;;4978460;28;20027;-81
2023/11/15 11:31:28;;;;;;;1.98;0.80;;;13.20;91.60;;;;;;4978795;28;20139;-81
2023/11/15 11:34:12;;;;;;;1.20;0.82;;;13.20;91.60;;;;;;4996208;28;20035;-80
2023/11/15 11:36:53;;;;;;;1.52;0.73;;;13.20;91.60;;;;;;4978491;28;20122;-81
2023/11/15 11:39:46;;;;;;;1.45;0.80;;;13.20;91.60;;;;;;4978606;28;20121;-81
2023/11/15 11:42:27;;;;;;;2.42;1.08;;;13.20;91.60;;;;;;4978682;28;20023;-81
2023/11/15 11:44:57;;;;;;;2.35;0.93;;;13.20;91.60;;;;;;4995975;28;20392;-81
2023/11/15 11:47:23;;;;;;;2.38;0.90;;;13.20;91.50;;;;;;4995660;28;20029;-81
2023/11/15 11:49:49;;;;;;;2.00;0.98;;;13.30;91.50;;;;;;4978293;28;20027;-81
2023/11/15 11:52:19;;;;;;;1.80;0.73;;;13.30;91.40;;;;;;4978496;28;20400;-81
2023/11/15 11:54:53;;;;;;;2.05;0.70;;;13.30;91.40;;;;;;4978309;28;20503;-81
2023/11/15 11:57:20;;;;;;;1.80;0.90;;;13.30;91.30;;;;;;4995444;28;20034;-81
2023/11/15 12:00:16;;;;;;;1.55;0.77;;;13.30;91.30;;;;;;4978214;28;20030;-81
2023/11/15 12:02:41;;;;;;;1.58;0.60;;;13.30;91.30;;;;;;4977862;28;20026;-81
2023/11/15 12:05:09;;;;;;;1.40;0.73;;;13.40;91.30;;;;;;4978375;28;20049;-81
2023/11/15 12:07:44;;;;;;;1.80;0.75;;;13.40;91.30;;;;;;4977912;28;20058;-80
2023/11/15 12:10:13;;;;;;;1.88;0.80;;;13.40;91.30;;;;;;4978249;28;20512;-80
2023/11/15 12:12:46;;;;;;;0.75;0.60;;;13.30;91.30;;;;;;4977948;28;20027;-81
2023/11/15 12:15:15;;;;;;;1.27;0.75;;;13.30;91.30;;;;;;4978117;28;20026;-80
2023/11/15 12:17:45;;;;;;;1.55;0.82;;;13.30;91.40;;;;;;4977770;28;20033;-81
2023/11/15 12:20:13;;;;;;;1.65;0.60;;;13.30;91.40;;;;;;4977825;28;20507;-80
2023/11/15 12:22:42;;;;;;;1.83;0.70;;;13.30;91.40;;;;;;4995310;28;20018;-81
2023/11/15 12:25:09;;;;;;;1.90;0.70;;;13.30;91.50;;;;;;4977523;28;20034;-81
2023/11/15 12:27:37;;;;;;;1.27;0.70;;;13.30;91.50;;;;;;4977455;28;20019;-81
2023/11/15 12:30:04;;;;;;;1.25;0.50;;;13.20;91.50;;;;;;4977681;28;20100;-80
2023/11/15 12:32:30;;;;;;;1.52;0.60;;;13.20;91.50;;;;;;4977951;28;20121;-81
2023/11/15 12:34:56;;;;;;;1.13;0.57;;;13.20;91.50;;;;;;4977833;28;20062;-81
2023/11/15 12:37:23;;;;;;;1.40;0.60;;;13.20;91.50;;;;;;4977336;28;20377;-81
2023/11/15 12:39:48;;;;;;;1.83;0.70;;;13.20;91.50;;;;;;4977418;28;20030;-80
2023/11/15 12:42:25;;;;;;;1.88;0.70;;;13.20;91.60;;;;;;4977559;28;20019;-81
2023/11/15 12:44:51;;;;;;;1.42;0.65;;;13.20;91.50;;;;;;4977436;28;20024;-81
2023/11/15 12:47:16;;;;;;;0.60;0.60;;;13.30;91.60;;;;;;4977310;28;20109;-81
2023/11/15 12:49:42;;;;;;;1.83;0.50;;;13.20;91.60;;;;;;4977587;28;20080;-81
2023/11/15 12:52:08;;;;;;;0.88;0.50;;;13.20;91.80;;;;;;4977459;28;20392;-81
2023/11/15 12:54:35;;;;;;;1.35;0.68;;;13.20;91.60;;;;;;4977395;28;20026;-81
2023/11/15 12:57:04;;;;;;;1.30;0.65;;;13.20;91.60;;;;;;4976951;28;20033;-80
2023/11/15 12:59:36;;;;;;;1.38;0.60;;;13.30;91.60;;;;;;4977263;28;20484;-81
2023/11/15 13:02:02;;;;;;;0.77;0.60;;;13.20;91.60;;;;;;4976599;28;20038;-83
2023/11/15 13:04:47;;;;;;;1.15;0.80;;;13.20;91.60;;;;;;4977007;28;20038;-82
2023/11/15 13:07:14;;;;;;;1.23;0.65;;;13.20;91.60;;;;;;4982082;28;20420;-80
2023/11/15 13:09:39;;;;;;;1.58;0.55;;;13.30;91.60;;;;;;4981190;28;20072;-80